Dewees Island, South Carolina
Current Conditions -  °F | °C
As of 11:55 AM on Thursday 23 Oct 2014 (Local Time) from KLRO Reporting Station
Clear Clear  
Wind Chill: 63°   Ceiling: Unl
Heat Index: 63°   Visibility: 10mi
Dew Point: 46°   Wind: 5mph
Humidity: 55%   Direction: 300°WNW
Pressure: 30.07"   Gusts: NA
Location:  32.8046°N, 79.7534°W
Report Text: KLRO 231555Z AUTO 30004KT 10SM CLR 17/08 A3007 RMK AO2 PWINO PNO
Loading
Personal Weather Stations






























Interactive Weather Map New forecast layout! Learn more

10-Day Weather Forecast

Advertisements
Track Severe Weather on mobile